Time;durP1;ratioP1;P1;durP2;ratioP2;P2;SDS_P1;SDS_P2;PMS_P1;PMS_P2;Temp;Humidity;BMP_temperature;BMP_pressure;BME280_temperature;BME280_humidity;BME280_pressure;Samples;Min_cycle;Max_cycle;Signal;HPM_P1;HPM_P2
2023/05/02 00:00:50;;;;;;;80.75;57.47;;;;;;;;;;5073288;28;20021;-68
2023/05/02 00:03:17;;;;;;;63.67;45.83;;;;;;;;;;5073077;28;20055;-68
2023/05/02 00:05:43;;;;;;;59.58;42.95;;;;;;;;;;5066952;28;20016;-68
2023/05/02 00:08:10;;;;;;;61.50;40.20;;;;;;;;;;5056473;28;20044;-67
2023/05/02 00:10:37;;;;;;;59.53;40.05;;;;;;;;;;5052761;28;20389;-67
2023/05/02 00:13:04;;;;;;;64.50;42.00;;;;;;;;;;5052930;28;20124;-68
2023/05/02 00:15:30;;;;;;;56.58;41.55;;;;;;;;;;5052921;28;20021;-68
2023/05/02 00:17:57;;;;;;;66.38;44.28;;;;;;;;;;5052641;28;20021;-69
2023/05/02 00:20:24;;;;;;;63.95;47.92;;;;;;;;;;5053282;28;20104;-68
2023/05/02 00:22:51;;;;;;;69.22;47.83;;;;;;;;;;5052896;28;20025;-67
2023/05/02 00:25:17;;;;;;;70.00;47.47;;;;;;;;;;5052808;28;20029;-67
2023/05/02 00:27:45;;;;;;;62.00;45.97;;;;;;;;;;5052861;28;20024;-67
2023/05/02 00:30:12;;;;;;;61.35;46.03;;;;;;;;;;5052712;28;20029;-67
2023/05/02 00:32:39;;;;;;;63.92;49.10;;;;;;;;;;5052617;28;20443;-67
2023/05/02 00:35:06;;;;;;;75.68;50.13;;;;;;;;;;5052745;28;20025;-67
2023/05/02 00:37:33;;;;;;;79.40;57.55;;;;;;;;;;5052629;28;20045;-67
2023/05/02 00:39:59;;;;;;;71.28;54.65;;;;;;;;;;5052741;28;20424;-67
2023/05/02 00:42:30;;;;;;;75.45;57.30;;;;;;;;;;5052769;28;20021;-68
2023/05/02 00:44:57;;;;;;;124.35;85.68;;;;;;;;;;5052535;28;20371;-67
2023/05/02 00:47:23;;;;;;;85.05;63.25;;;;;;;;;;5050826;28;20386;-67
2023/05/02 00:49:50;;;;;;;71.65;52.38;;;;;;;;;;5051727;28;20086;-67
2023/05/02 00:52:17;;;;;;;72.07;54.20;;;;;;;;;;5052442;28;20497;-68
2023/05/02 00:54:43;;;;;;;73.68;54.38;;;;;;;;;;5051488;28;20057;-71
2023/05/02 00:57:10;;;;;;;68.47;51.47;;;;;;;;;;5055869;28;20528;-70
2023/05/02 00:59:37;;;;;;;66.40;49.85;;;;;;;;;;5054328;28;20036;-69
2023/05/02 01:02:23;;;;;;;76.68;51.75;;;;;;;;;;5054263;28;20379;-67
2023/05/02 01:05:10;;;;;;;73.80;57.30;;;;;;;;;;5055883;28;20516;-67
2023/05/02 01:07:38;;;;;;;78.03;55.67;;;;;;;;;;5055282;28;20032;-68
2023/05/02 01:10:05;;;;;;;84.88;57.40;;;;;;;;;;5055757;28;20029;-69
2023/05/02 01:12:33;;;;;;;73.15;53.40;;;;;;;;;;5055884;28;20075;-69
2023/05/02 01:15:02;;;;;;;85.03;62.13;;;;;;;;;;5055619;28;20071;-68
2023/05/02 01:17:33;;;;;;;77.15;55.78;;;;;;;;;;5055963;28;20520;-68
2023/05/02 01:20:02;;;;;;;63.47;46.35;;;;;;;;;;5055523;28;20422;-68
2023/05/02 01:22:29;;;;;;;69.07;46.05;;;;;;;;;;5055628;28;20033;-68
2023/05/02 01:25:04;;;;;;;63.58;46.05;;;;;;;;;;5055619;28;20029;-68
2023/05/02 01:27:40;;;;;;;57.75;41.25;;;;;;;;;;5055342;28;20021;-66
2023/05/02 01:30:08;;;;;;;50.08;36.45;;;;;;;;;;5055467;28;20033;-66
2023/05/02 01:32:37;;;;;;;54.85;41.60;;;;;;;;;;5055449;28;20032;-68
2023/05/02 01:35:04;;;;;;;59.42;41.35;;;;;;;;;;5055451;28;20028;-68
2023/05/02 01:37:32;;;;;;;53.67;39.40;;;;;;;;;;5055382;28;20488;-68
2023/05/02 01:40:00;;;;;;;43.67;32.38;;;;;;;;;;5055128;28;20029;-68
2023/05/02 01:42:27;;;;;;;45.03;32.28;;;;;;;;;;5055076;28;20047;-68
2023/05/02 01:44:55;;;;;;;44.10;31.40;;;;;;;;;;5055286;28;20131;-67
2023/05/02 01:47:23;;;;;;;43.17;31.25;;;;;;;;;;5054989;28;20057;-68
2023/05/02 01:49:50;;;;;;;36.92;29.52;;;;;;;;;;5055168;28;20024;-69
2023/05/02 01:52:17;;;;;;;47.05;31.42;;;;;;;;;;5055141;28;20025;-69
2023/05/02 01:54:44;;;;;;;39.55;29.45;;;;;;;;;;5054743;28;20051;-70
2023/05/02 01:57:11;;;;;;;37.13;29.20;;;;;;;;;;5055111;28;20023;-69
2023/05/02 01:59:40;;;;;;;36.50;27.92;;;;;;;;;;5055104;28;20032;-69
2023/05/02 02:02:08;;;;;;;30.10;22.13;;;;;;;;;;5054777;28;20024;-69
2023/05/02 02:04:35;;;;;;;35.58;24.92;;;;;;;;;;5055125;28;20031;-68
2023/05/02 02:07:03;;;;;;;32.17;23.63;;;;;;;;;;5054005;28;20074;-68
2023/05/02 02:09:30;;;;;;;30.88;24.15;;;;;;;;;;5054464;28;20108;-69
2023/05/02 02:12:02;;;;;;;28.85;21.85;;;;;;;;;;5054750;28;20021;-68
2023/05/02 02:14:33;;;;;;;29.13;19.30;;;;;;;;;;5054634;28;20025;-69
2023/05/02 02:17:01;;;;;;;29.47;18.40;;;;;;;;;;5054573;28;20100;-69
2023/05/02 02:19:30;;;;;;;26.67;18.58;;;;;;;;;;5054656;28;20025;-68
2023/05/02 02:21:58;;;;;;;23.20;16.55;;;;;;;;;;5054758;28;20056;-69
2023/05/02 02:24:26;;;;;;;19.90;16.02;;;;;;;;;;5054381;28;20029;-69
2023/05/02 02:26:52;;;;;;;25.90;18.50;;;;;;;;;;5054380;28;20063;-69
2023/05/02 02:29:19;;;;;;;25.15;17.65;;;;;;;;;;5054384;28;20074;-68
2023/05/02 02:31:45;;;;;;;25.50;19.40;;;;;;;;;;5054194;28;20021;-69
2023/05/02 02:34:12;;;;;;;28.95;21.05;;;;;;;;;;5054305;28;20020;-69
2023/05/02 02:36:53;;;;;;;31.63;24.40;;;;;;;;;;5054256;28;20394;-68
2023/05/02 02:39:28;;;;;;;34.38;24.98;;;;;;;;;;5054073;28;20103;-69
2023/05/02 02:42:01;;;;;;;26.05;20.58;;;;;;;;;;5054253;28;20474;-69
2023/05/02 02:44:40;;;;;;;29.63;22.88;;;;;;;;;;5054337;28;20366;-68
2023/05/02 02:47:09;;;;;;;24.88;19.45;;;;;;;;;;5053987;28;20039;-68
2023/05/02 02:49:37;;;;;;;28.40;21.88;;;;;;;;;;5053870;28;20021;-68
2023/05/02 02:52:12;;;;;;;31.05;21.92;;;;;;;;;;5053857;28;20113;-69
2023/05/02 02:54:59;;;;;;;31.60;22.83;;;;;;;;;;5053857;28;20138;-69
2023/05/02 02:57:39;;;;;;;28.90;21.15;;;;;;;;;;5051805;28;20112;-69
2023/05/02 03:00:11;;;;;;;28.38;19.95;;;;;;;;;;5053907;28;20397;-69
2023/05/02 03:02:41;;;;;;;26.73;19.15;;;;;;;;;;5053680;28;20048;-69
2023/05/02 03:05:09;;;;;;;24.42;17.70;;;;;;;;;;5053629;28;20037;-68
2023/05/02 03:07:36;;;;;;;19.73;15.65;;;;;;;;;;5053606;28;20615;-69
2023/05/02 03:10:03;;;;;;;25.90;19.23;;;;;;;;;;5053606;28;20032;-69
2023/05/02 03:12:30;;;;;;;17.83;13.75;;;;;;;;;;5053595;28;20501;-69
2023/05/02 03:15:02;;;;;;;11.60;9.80;;;;;;;;;;5055042;28;20025;-68
2023/05/02 03:17:29;;;;;;;13.82;11.32;;;;;;;;;;5072342;28;20081;-67
2023/05/02 03:19:56;;;;;;;15.75;11.45;;;;;;;;;;5068128;28;20028;-67
2023/05/02 03:22:22;;;;;;;16.13;12.20;;;;;;;;;;5065809;28;20091;-67
2023/05/02 03:24:49;;;;;;;17.40;11.38;;;;;;;;;;5053406;28;20024;-67
2023/05/02 03:27:16;;;;;;;17.35;11.05;;;;;;;;;;5053308;28;20033;-67
2023/05/02 03:29:42;;;;;;;22.05;14.77;;;;;;;;;;5061926;28;20028;-67
2023/05/02 03:32:09;;;;;;;14.82;11.55;;;;;;;;;;5053288;28;20028;-67
2023/05/02 03:34:35;;;;;;;15.90;10.73;;;;;;;;;;5053228;28;20021;-68
2023/05/02 03:37:02;;;;;;;20.63;11.77;;;;;;;;;;5053089;28;20489;-67
2023/05/02 03:39:29;;;;;;;13.57;10.13;;;;;;;;;;5053365;28;20021;-67
2023/05/02 03:41:55;;;;;;;15.32;12.38;;;;;;;;;;5053201;28;20032;-67
2023/05/02 03:44:22;;;;;;;15.43;12.23;;;;;;;;;;5053048;28;20025;-68
2023/05/02 03:46:49;;;;;;;16.48;11.93;;;;;;;;;;5053054;28;20043;-68
2023/05/02 03:49:15;;;;;;;13.55;11.68;;;;;;;;;;5053083;28;20100;-67
2023/05/02 03:51:42;;;;;;;19.08;13.40;;;;;;;;;;5052862;28;20021;-68
2023/05/02 03:54:08;;;;;;;17.60;15.00;;;;;;;;;;5052903;28;20091;-68
2023/05/02 03:56:36;;;;;;;20.40;16.02;;;;;;;;;;5053054;28;20017;-67
2023/05/02 03:59:02;;;;;;;21.73;17.17;;;;;;;;;;5052914;28;20021;-67
2023/05/02 04:01:29;;;;;;;20.58;16.45;;;;;;;;;;5053274;28;20040;-68
2023/05/02 04:03:56;;;;;;;19.33;16.27;;;;;;;;;;5052916;28;20542;-67
2023/05/02 04:06:22;;;;;;;23.13;18.70;;;;;;;;;;5052842;28;20033;-68
2023/05/02 04:08:49;;;;;;;24.30;19.98;;;;;;;;;;5052863;28;20017;-68
2023/05/02 04:11:16;;;;;;;26.90;20.33;;;;;;;;;;5053037;28;20645;-68
2023/05/02 04:13:42;;;;;;;25.38;21.83;;;;;;;;;;5052743;28;20028;-68
2023/05/02 04:16:09;;;;;;;24.83;20.48;;;;;;;;;;5052857;28;20063;-67
2023/05/02 04:18:36;;;;;;;18.58;15.77;;;;;;;;;;5052929;28;20108;-68
2023/05/02 04:21:02;;;;;;;26.40;17.20;;;;;;;;;;5052735;28;20024;-67
2023/05/02 04:23:29;;;;;;;31.38;21.73;;;;;;;;;;5052796;28;20099;-67
2023/05/02 04:25:56;;;;;;;17.33;14.98;;;;;;;;;;5051742;28;20564;-67
2023/05/02 04:28:22;;;;;;;25.02;17.10;;;;;;;;;;5052675;28;20080;-69
2023/05/02 04:30:50;;;;;;;21.52;17.15;;;;;;;;;;5054579;28;20033;-66
2023/05/02 04:33:17;;;;;;;23.60;17.45;;;;;;;;;;5056682;28;20021;-67
2023/05/02 04:35:44;;;;;;;24.83;17.60;;;;;;;;;;5056468;28;20025;-68
2023/05/02 04:38:10;;;;;;;25.75;18.00;;;;;;;;;;5056395;28;20025;-70
2023/05/02 04:40:37;;;;;;;20.52;17.52;;;;;;;;;;5056524;28;20027;-67
2023/05/02 04:43:04;;;;;;;17.38;14.00;;;;;;;;;;5061698;28;20021;-68
2023/05/02 04:45:31;;;;;;;20.42;15.25;;;;;;;;;;5065136;28;20032;-68
2023/05/02 04:47:58;;;;;;;18.58;15.93;;;;;;;;;;5065907;28;20103;-68
2023/05/02 04:50:26;;;;;;;20.60;16.33;;;;;;;;;;5064286;28;20048;-67
2023/05/02 04:52:53;;;;;;;21.13;16.10;;;;;;;;;;5066848;28;20017;-68
2023/05/02 04:55:20;;;;;;;17.15;15.35;;;;;;;;;;5069420;28;20048;-68
2023/05/02 04:57:46;;;;;;;21.08;16.17;;;;;;;;;;5063898;28;20099;-68
2023/05/02 05:00:14;;;;;;;20.17;17.52;;;;;;;;;;5065206;28;20047;-69
2023/05/02 05:02:41;;;;;;;19.88;16.73;;;;;;;;;;5065548;28;20012;-70
2023/05/02 05:05:08;;;;;;;19.45;14.60;;;;;;;;;;5075939;28;20025;-68
2023/05/02 05:07:35;;;;;;;17.33;15.50;;;;;;;;;;5075902;28;20028;-67
2023/05/02 05:10:02;;;;;;;16.38;13.82;;;;;;;;;;5064347;28;20363;-68
2023/05/02 05:12:29;;;;;;;16.08;14.02;;;;;;;;;;5055909;28;20032;-68
2023/05/02 05:14:56;;;;;;;16.52;14.13;;;;;;;;;;5062909;28;20096;-67
2023/05/02 05:17:22;;;;;;;14.23;12.35;;;;;;;;;;5075756;28;20020;-68
2023/05/02 05:19:49;;;;;;;14.00;12.23;;;;;;;;;;5075797;28;20017;-67
2023/05/02 05:22:16;;;;;;;15.80;14.13;;;;;;;;;;5075510;28;20025;-68
2023/05/02 05:24:42;;;;;;;15.95;13.05;;;;;;;;;;5075928;28;20421;-69
2023/05/02 05:27:09;;;;;;;14.80;13.30;;;;;;;;;;5075678;28;20031;-69
2023/05/02 05:29:36;;;;;;;16.13;13.50;;;;;;;;;;5075357;28;20098;-69
2023/05/02 05:32:04;;;;;;;16.75;14.25;;;;;;;;;;5070748;28;20147;-69
2023/05/02 05:34:31;;;;;;;15.70;13.60;;;;;;;;;;5055456;28;20017;-70
2023/05/02 05:36:57;;;;;;;16.23;13.25;;;;;;;;;;5055215;28;20419;-69
2023/05/02 05:39:24;;;;;;;18.40;14.05;;;;;;;;;;5059004;28;20012;-69
2023/05/02 05:41:51;;;;;;;16.88;13.00;;;;;;;;;;5070698;28;20021;-68
2023/05/02 05:44:20;;;;;;;13.75;12.32;;;;;;;;;;5064542;28;20027;-68
2023/05/02 05:46:47;;;;;;;13.52;12.13;;;;;;;;;;5065511;28;20032;-68
2023/05/02 05:49:16;;;;;;;15.75;12.38;;;;;;;;;;5063333;28;20017;-68
2023/05/02 05:51:43;;;;;;;15.95;10.93;;;;;;;;;;5063815;28;20025;-68
2023/05/02 05:54:10;;;;;;;12.40;10.80;;;;;;;;;;5065021;28;20501;-68
2023/05/02 05:56:36;;;;;;;11.98;10.40;;;;;;;;;;5062579;28;20021;-70
2023/05/02 05:59:03;;;;;;;15.38;11.10;;;;;;;;;;5061030;28;20028;-67
2023/05/02 06:01:30;;;;;;;14.52;10.23;;;;;;;;;;5062519;28;20029;-69
2023/05/02 06:03:57;;;;;;;12.98;10.43;;;;;;;;;;5063107;28;20337;-69
2023/05/02 06:06:24;;;;;;;14.32;10.30;;;;;;;;;;5063552;28;20029;-68
2023/05/02 06:08:51;;;;;;;14.18;10.95;;;;;;;;;;5063738;28;20024;-68
2023/05/02 06:11:17;;;;;;;15.32;11.00;;;;;;;;;;5064103;28;20023;-69
2023/05/02 06:13:44;;;;;;;11.80;9.82;;;;;;;;;;5062337;28;20017;-68
2023/05/02 06:16:11;;;;;;;12.73;9.50;;;;;;;;;;5063745;28;20419;-68
2023/05/02 06:18:37;;;;;;;11.13;8.63;;;;;;;;;;5062882;28;20548;-68
2023/05/02 06:21:04;;;;;;;12.27;8.52;;;;;;;;;;5064127;28;20470;-67
2023/05/02 06:23:31;;;;;;;12.75;7.68;;;;;;;;;;5062767;28;20021;-69
2023/05/02 06:25:59;;;;;;;11.27;7.65;;;;;;;;;;5063235;28;20029;-68
2023/05/02 06:28:26;;;;;;;12.75;8.32;;;;;;;;;;5062430;28;20051;-67
2023/05/02 06:30:59;;;;;;;10.30;8.13;;;;;;;;;;5062847;28;20024;-67
2023/05/02 06:33:27;;;;;;;11.48;8.30;;;;;;;;;;5062459;28;20029;-69
2023/05/02 06:35:53;;;;;;;10.80;8.90;;;;;;;;;;5062697;28;20381;-67
2023/05/02 06:38:20;;;;;;;14.20;9.32;;;;;;;;;;5064682;28;20436;-69
2023/05/02 06:40:47;;;;;;;8.88;7.97;;;;;;;;;;5064876;28;20055;-68
2023/05/02 06:43:14;;;;;;;12.40;8.65;;;;;;;;;;5061213;28;20111;-69
2023/05/02 06:45:41;;;;;;;12.13;8.82;;;;;;;;;;5052710;28;20016;-68
2023/05/02 06:48:08;;;;;;;10.93;8.73;;;;;;;;;;5067545;28;20122;-68
2023/05/02 06:50:35;;;;;;;12.32;8.27;;;;;;;;;;5052312;28;20108;-67
2023/05/02 06:53:02;;;;;;;10.70;8.88;;;;;;;;;;5057870;28;20468;-69
2023/05/02 06:55:28;;;;;;;9.63;8.25;;;;;;;;;;5060180;28;20442;-68
2023/05/02 06:57:55;;;;;;;9.95;8.45;;;;;;;;;;5060609;28;20462;-68
2023/05/02 07:00:22;;;;;;;9.93;8.23;;;;;;;;;;5064863;28;20086;-69
2023/05/02 07:02:49;;;;;;;13.27;9.90;;;;;;;;;;5065648;28;20045;-68
2023/05/02 07:05:16;;;;;;;10.13;8.73;;;;;;;;;;5061078;28;20025;-68
2023/05/02 07:07:43;;;;;;;10.60;8.52;;;;;;;;;;5063935;28;20024;-70
2023/05/02 07:10:10;;;;;;;12.57;8.48;;;;;;;;;;5062826;28;20025;-68
2023/05/02 07:12:38;;;;;;;9.95;8.05;;;;;;;;;;5061887;28;20099;-68
2023/05/02 07:15:05;;;;;;;11.63;8.13;;;;;;;;;;5061381;28;20025;-69
2023/05/02 07:17:32;;;;;;;21.38;13.25;;;;;;;;;;5062449;28;20039;-69
2023/05/02 07:19:58;;;;;;;13.55;9.25;;;;;;;;;;5063073;28;20028;-71
2023/05/02 07:22:25;;;;;;;13.00;8.85;;;;;;;;;;5059830;28;20488;-69
2023/05/02 07:25:02;;;;;;;11.05;9.27;;;;;;;;;;5060575;28;20107;-68
2023/05/02 07:27:29;;;;;;;12.85;9.40;;;;;;;;;;5060919;28;20519;-67
2023/05/02 07:29:56;;;;;;;12.95;10.05;;;;;;;;;;5071266;28;20508;-68
2023/05/02 07:32:24;;;;;;;12.50;9.68;;;;;;;;;;5066094;28;20048;-70
2023/05/02 07:34:53;;;;;;;14.23;9.88;;;;;;;;;;5052411;28;20025;-68
2023/05/02 07:37:20;;;;;;;14.85;9.98;;;;;;;;;;5052868;28;20537;-68
2023/05/02 07:39:47;;;;;;;13.55;9.45;;;;;;;;;;5053162;28;20044;-67
2023/05/02 07:42:14;;;;;;;14.30;10.38;;;;;;;;;;5052967;28;20021;-67
2023/05/02 07:44:40;;;;;;;11.68;8.50;;;;;;;;;;5053216;28;20031;-68
2023/05/02 07:47:08;;;;;;;11.27;10.07;;;;;;;;;;5052325;28;20078;-67
2023/05/02 07:49:35;;;;;;;12.20;10.27;;;;;;;;;;5053109;28;20029;-68
2023/05/02 07:52:02;;;;;;;12.00;10.75;;;;;;;;;;5053181;28;20025;-68
2023/05/02 07:54:29;;;;;;;14.60;10.77;;;;;;;;;;5052926;28;20045;-68
2023/05/02 07:56:57;;;;;;;12.50;10.30;;;;;;;;;;5052866;28;20082;-68
2023/05/02 07:59:24;;;;;;;13.35;9.93;;;;;;;;;;5063056;28;20027;-68
2023/05/02 08:01:50;;;;;;;13.85;11.02;;;;;;;;;;5093131;28;20419;-68
2023/05/02 08:04:17;;;;;;;11.90;10.38;;;;;;;;;;5092999;28;20020;-66
2023/05/02 08:06:44;;;;;;;14.45;12.52;;;;;;;;;;5097038;28;20052;-67
2023/05/02 08:09:11;;;;;;;22.52;15.18;;;;;;;;;;5097322;28;20020;-67
2023/05/02 08:11:37;;;;;;;20.50;15.18;;;;;;;;;;5097198;28;20376;-66
2023/05/02 08:14:04;;;;;;;20.50;15.60;;;;;;;;;;5097334;28;20016;-68
2023/05/02 08:16:31;;;;;;;18.83;14.55;;;;;;;;;;5097201;28;20032;-67
2023/05/02 08:18:57;;;;;;;19.70;15.50;;;;;;;;;;5097025;28;20096;-68
2023/05/02 08:21:24;;;;;;;26.48;14.95;;;;;;;;;;5075768;28;20420;-72
2023/05/02 08:23:51;;;;;;;19.77;15.60;;;;;;;;;;5066401;28;20017;-68
2023/05/02 08:26:20;;;;;;;26.35;18.02;;;;;;;;;;5064587;28;20487;-69
2023/05/02 08:28:47;;;;;;;32.25;19.83;;;;;;;;;;5065146;28;20060;-69
2023/05/02 08:31:13;;;;;;;35.80;22.00;;;;;;;;;;5066437;28;20020;-67
2023/05/02 08:33:40;;;;;;;34.72;24.80;;;;;;;;;;5064779;28;20086;-68
2023/05/02 08:36:10;;;;;;;38.45;28.38;;;;;;;;;;5065085;28;20082;-70
2023/05/02 08:38:37;;;;;;;39.20;29.05;;;;;;;;;;5064246;28;20047;-70
2023/05/02 08:41:09;;;;;;;36.15;28.38;;;;;;;;;;5065433;28;20171;-69
2023/05/02 08:43:36;;;;;;;44.95;31.27;;;;;;;;;;5066264;28;20043;-69
2023/05/02 08:46:06;;;;;;;43.60;31.42;;;;;;;;;;5064747;28;20429;-67
2023/05/02 08:48:35;;;;;;;46.15;33.20;;;;;;;;;;5064369;28;20535;-70
2023/05/02 08:51:02;;;;;;;43.20;31.50;;;;;;;;;;5064016;28;20099;-69
2023/05/02 08:53:30;;;;;;;40.67;30.63;;;;;;;;;;5065229;28;20017;-69
2023/05/02 08:55:58;;;;;;;43.53;29.98;;;;;;;;;;5065792;28;20145;-71
2023/05/02 08:58:25;;;;;;;39.42;27.83;;;;;;;;;;5064528;28;20413;-70
2023/05/02 09:00:52;;;;;;;42.20;29.35;;;;;;;;;;5064577;28;20074;-71
2023/05/02 09:03:30;;;;;;;64.65;42.83;;;;;;;;;;5065799;28;20020;-74
2023/05/02 09:06:17;;;;;;;52.45;35.42;;;;;;;;;;5065945;28;20028;-68
2023/05/02 09:08:44;;;;;;;42.83;32.03;;;;;;;;;;5062272;28;20140;-68
2023/05/02 09:11:11;;;;;;;40.13;30.33;;;;;;;;;;5064429;28;20013;-69
2023/05/02 09:13:41;;;;;;;53.17;40.08;;;;;;;;;;5065513;28;20013;-69
2023/05/02 09:16:09;;;;;;;70.60;47.97;;;;;;;;;;5065391;28;20029;-69
2023/05/02 09:18:38;;;;;;;202.15;131.27;;;;;;;;;;5068260;28;20099;-69
2023/05/02 09:21:07;;;;;;;136.02;82.18;;;;;;;;;;5063774;28;20474;-69
2023/05/02 09:23:38;;;;;;;89.97;56.88;;;;;;;;;;5063781;28;20117;-70
2023/05/02 09:26:11;;;;;;;96.45;59.35;;;;;;;;;;5063973;28;20021;-68
2023/05/02 09:28:40;;;;;;;64.55;41.38;;;;;;;;;;5063233;28;20052;-69
2023/05/02 09:31:08;;;;;;;59.22;41.13;;;;;;;;;;5064730;28;20025;-69
2023/05/02 09:33:35;;;;;;;73.97;46.75;;;;;;;;;;5065002;28;20059;-68
2023/05/02 09:36:01;;;;;;;82.82;52.63;;;;;;;;;;5063136;28;20055;-68
2023/05/02 09:38:28;;;;;;;92.85;58.30;;;;;;;;;;5061915;28;20059;-68
2023/05/02 09:40:55;;;;;;;62.38;43.42;;;;;;;;;;5095008;28;20558;-70
2023/05/02 09:43:22;;;;;;;56.80;40.08;;;;;;;;;;5078880;28;20037;-69
2023/05/02 09:46:08;;;;;;;51.80;37.53;;;;;;;;;;5062806;28;20021;-69
2023/05/02 09:48:55;;;;;;;64.72;45.90;;;;;;;;;;5054695;28;20032;-68
2023/05/02 09:51:22;;;;;;;47.88;35.20;;;;;;;;;;5055039;28;20440;-68
2023/05/02 09:53:49;;;;;;;54.03;35.28;;;;;;;;;;5054713;28;20075;-68
2023/05/02 09:56:16;;;;;;;31.25;20.83;;;;;;;;;;5054934;28;20025;-68
2023/05/02 09:58:43;;;;;;;34.85;22.10;;;;;;;;;;5054931;28;20497;-68
2023/05/02 10:01:17;;;;;;;35.00;21.75;;;;;;;;;;5054716;28;20033;-66
2023/05/02 10:03:47;;;;;;;31.83;21.40;;;;;;;;;;5053549;28;20492;-69
2023/05/02 10:06:16;;;;;;;38.65;24.90;;;;;;;;;;5054664;28;20028;-69
2023/05/02 10:08:44;;;;;;;36.80;24.63;;;;;;;;;;5054664;28;20434;-69
2023/05/02 10:11:12;;;;;;;31.52;22.55;;;;;;;;;;5054622;28;20033;-70
2023/05/02 10:13:41;;;;;;;33.67;22.98;;;;;;;;;;5054501;28;20021;-70
2023/05/02 10:16:10;;;;;;;39.35;27.00;;;;;;;;;;5054610;28;20024;-72
2023/05/02 10:18:38;;;;;;;45.58;29.48;;;;;;;;;;5054585;28;20473;-70
2023/05/02 10:21:08;;;;;;;43.33;29.15;;;;;;;;;;5054305;28;20474;-70
2023/05/02 10:23:34;;;;;;;50.80;34.47;;;;;;;;;;5054484;28;20032;-70
2023/05/02 10:26:01;;;;;;;47.85;30.70;;;;;;;;;;5054312;28;20071;-70
2023/05/02 10:28:30;;;;;;;41.50;26.63;;;;;;;;;;5052505;28;20432;-70
2023/05/02 10:30:58;;;;;;;37.55;21.33;;;;;;;;;;5054222;28;20035;-69
2023/05/02 10:33:25;;;;;;;35.28;20.27;;;;;;;;;;5054256;28;20075;-69
2023/05/02 10:35:52;;;;;;;27.88;19.65;;;;;;;;;;5054017;28;20490;-69
2023/05/02 10:38:22;;;;;;;57.03;34.92;;;;;;;;;;5054185;28;20021;-69
2023/05/02 10:41:04;;;;;;;47.25;26.70;;;;;;;;;;5054082;28;20077;-69
2023/05/02 10:43:34;;;;;;;45.20;26.67;;;;;;;;;;5054131;28;20105;-69
2023/05/02 10:46:02;;;;;;;40.53;27.05;;;;;;;;;;5054029;28;20021;-70
2023/05/02 10:48:29;;;;;;;37.13;24.60;;;;;;;;;;5053816;28;20021;-70
2023/05/02 10:50:56;;;;;;;37.80;24.77;;;;;;;;;;5053908;28;20021;-70
2023/05/02 10:53:24;;;;;;;31.38;20.15;;;;;;;;;;5053966;28;20488;-70
2023/05/02 10:56:10;;;;;;;28.90;20.27;;;;;;;;;;5080610;28;20048;-68
2023/05/02 10:58:37;;;;;;;36.75;23.30;;;;;;;;;;5093931;28;20032;-70
2023/05/02 11:01:25;;;;;;;38.85;26.67;;;;;;;;;;5093777;28;20103;-70
2023/05/02 11:03:56;;;;;;;41.90;27.58;;;;;;;;;;5086641;28;20027;-68
2023/05/02 11:06:23;;;;;;;42.80;24.87;;;;;;;;;;5093930;28;20089;-69
2023/05/02 11:08:50;;;;;;;40.60;24.38;;;;;;;;;;5093808;28;20058;-69
2023/05/02 11:11:36;;;;;;;39.28;24.65;;;;;;;;;;5093716;28;20036;-69
2023/05/02 11:14:03;;;;;;;39.25;24.50;;;;;;;;;;5093799;28;20020;-69
2023/05/02 11:16:50;;;;;;;44.70;26.05;;;;;;;;;;5093775;28;20016;-66
2023/05/02 11:19:16;;;;;;;48.47;30.63;;;;;;;;;;5087915;28;20105;-67
2023/05/02 11:21:43;;;;;;;80.18;50.13;;;;;;;;;;5093711;28;20020;-69
2023/05/02 11:24:29;;;;;;;95.45;54.78;;;;;;;;;;5093415;28;20024;-71
2023/05/02 11:27:16;;;;;;;69.10;43.15;;;;;;;;;;5093542;28;20046;-68
2023/05/02 11:29:52;;;;;;;64.90;39.45;;;;;;;;;;5093353;28;20024;-70
2023/05/02 11:32:18;;;;;;;53.17;31.05;;;;;;;;;;5093543;28;20553;-68
2023/05/02 11:34:46;;;;;;;51.35;32.03;;;;;;;;;;5093301;28;20012;-72
2023/05/02 11:37:14;;;;;;;55.00;32.15;;;;;;;;;;5094076;28;20024;-71
2023/05/02 11:39:41;;;;;;;56.75;32.20;;;;;;;;;;5092363;28;20169;-69
2023/05/02 11:42:07;;;;;;;54.58;32.78;;;;;;;;;;5093199;28;20020;-69
2023/05/02 11:44:34;;;;;;;53.28;33.03;;;;;;;;;;5093213;28;20032;-69
2023/05/02 11:47:02;;;;;;;54.03;33.22;;;;;;;;;;5093203;28;20388;-71
2023/05/02 11:49:29;;;;;;;55.25;34.50;;;;;;;;;;5093051;28;20024;-72
2023/05/02 11:51:55;;;;;;;68.15;35.42;;;;;;;;;;5093352;28;20103;-70
2023/05/02 11:54:22;;;;;;;60.15;37.22;;;;;;;;;;5093017;28;20076;-71
2023/05/02 11:56:48;;;;;;;67.07;38.00;;;;;;;;;;5093191;28;20020;-69
2023/05/02 11:59:15;;;;;;;61.42;35.67;;;;;;;;;;5093728;28;20028;-70
2023/05/02 12:01:52;;;;;;;55.55;34.78;;;;;;;;;;5086881;28;20025;-69
2023/05/02 12:04:22;;;;;;;65.75;35.97;;;;;;;;;;5072764;28;20531;-69
2023/05/02 12:06:55;;;;;;;72.05;39.28;;;;;;;;;;5073213;28;20094;-69
2023/05/02 12:09:22;;;;;;;75.32;42.35;;;;;;;;;;5072917;28;20021;-69
2023/05/02 12:11:58;;;;;;;146.35;100.63;;;;;;;;;;5089700;28;20202;-68
2023/05/02 12:14:29;;;;;;;113.65;73.00;;;;;;;;;;5093016;28;20024;-69
2023/05/02 12:16:56;;;;;;;95.72;53.58;;;;;;;;;;5092982;28;20114;-68
2023/05/02 12:19:23;;;;;;;88.72;49.22;;;;;;;;;;5093187;28;20028;-68
2023/05/02 12:21:50;;;;;;;95.35;53.65;;;;;;;;;;5093083;28;20025;-68
2023/05/02 12:24:16;;;;;;;97.80;54.55;;;;;;;;;;5092831;28;20481;-68
2023/05/02 12:26:43;;;;;;;100.60;56.22;;;;;;;;;;5093120;28;20469;-69
2023/05/02 12:29:11;;;;;;;134.95;77.28;;;;;;;;;;5093180;28;20031;-68
2023/05/02 12:31:38;;;;;;;139.60;80.63;;;;;;;;;;5092803;28;20016;-68
2023/05/02 12:34:05;;;;;;;125.93;75.65;;;;;;;;;;5092944;28;20031;-68
2023/05/02 12:36:32;;;;;;;103.45;60.05;;;;;;;;;;5092954;28;20415;-68
2023/05/02 12:39:00;;;;;;;103.57;60.10;;;;;;;;;;5078075;28;20412;-68
2023/05/02 12:41:31;;;;;;;100.57;59.10;;;;;;;;;;5066160;28;20481;-68
2023/05/02 12:43:59;;;;;;;83.85;50.15;;;;;;;;;;5072737;28;20466;-72
2023/05/02 12:46:27;;;;;;;87.18;48.45;;;;;;;;;;5064298;28;20016;-68
2023/05/02 12:49:04;;;;;;;79.18;48.78;;;;;;;;;;5072607;28;20031;-67
2023/05/02 12:51:31;;;;;;;72.60;44.10;;;;;;;;;;5070420;28;20012;-68
2023/05/02 12:53:58;;;;;;;83.93;45.60;;;;;;;;;;5076263;28;20100;-67
2023/05/02 12:56:30;;;;;;;83.15;47.65;;;;;;;;;;5076426;28;20028;-68
2023/05/02 12:59:02;;;;;;;93.68;48.50;;;;;;;;;;5076359;28;20036;-65
2023/05/02 13:01:30;;;;;;;74.00;41.88;;;;;;;;;;5076622;28;20029;-66
2023/05/02 13:03:57;;;;;;;72.93;41.50;;;;;;;;;;5076211;28;20032;-66
2023/05/02 13:06:24;;;;;;;66.55;41.92;;;;;;;;;;5076238;28;20111;-66
2023/05/02 13:08:51;;;;;;;66.72;37.83;;;;;;;;;;5072755;28;20047;-66
2023/05/02 13:11:19;;;;;;;64.03;37.05;;;;;;;;;;5063194;28;20051;-65
2023/05/02 13:13:46;;;;;;;126.10;86.60;;;;;;;;;;5064381;28;20043;-66
2023/05/02 13:16:12;;;;;;;132.40;87.65;;;;;;;;;;5065334;28;20013;-65
2023/05/02 13:18:39;;;;;;;71.28;47.55;;;;;;;;;;5064663;28;20036;-66
2023/05/02 13:21:05;;;;;;;60.08;38.58;;;;;;;;;;5066470;28;20059;-66
2023/05/02 13:23:32;;;;;;;57.95;36.83;;;;;;;;;;5065846;28;20458;-67
2023/05/02 13:25:59;;;;;;;50.85;30.50;;;;;;;;;;5064806;28;20033;-66
2023/05/02 13:28:25;;;;;;;54.95;29.80;;;;;;;;;;5063997;28;20032;-68
2023/05/02 13:30:52;;;;;;;47.47;27.55;;;;;;;;;;5064699;28;20486;-68
2023/05/02 13:33:19;;;;;;;39.63;25.30;;;;;;;;;;5064282;28;20024;-66
2023/05/02 13:35:45;;;;;;;38.15;25.25;;;;;;;;;;5064041;28;20032;-67
2023/05/02 13:38:12;;;;;;;43.17;21.42;;;;;;;;;;5092289;22;20489;-65
2023/05/02 13:40:39;;;;;;;32.63;21.00;;;;;;;;;;5103366;28;20031;-65
2023/05/02 13:43:05;;;;;;;31.65;19.77;;;;;;;;;;5104248;28;20031;-66
2023/05/02 13:45:32;;;;;;;38.97;20.45;;;;;;;;;;5105357;28;20019;-65
2023/05/02 13:47:59;;;;;;;34.70;20.25;;;;;;;;;;5104764;28;20465;-65
2023/05/02 13:50:26;;;;;;;51.63;29.33;;;;;;;;;;5104226;28;20039;-65
2023/05/02 13:52:52;;;;;;;34.28;18.52;;;;;;;;;;5105660;28;20024;-66
2023/05/02 13:55:19;;;;;;;31.08;19.08;;;;;;;;;;5103028;28;20388;-66
2023/05/02 13:57:45;;;;;;;29.73;17.65;;;;;;;;;;5104882;28;20520;-66
2023/05/02 14:00:12;;;;;;;31.23;18.48;;;;;;;;;;5103865;28;20024;-66
2023/05/02 14:02:39;;;;;;;26.15;17.35;;;;;;;;;;5102152;28;20033;-66
2023/05/02 14:05:06;;;;;;;26.92;15.80;;;;;;;;;;5103245;28;20436;-66
2023/05/02 14:07:33;;;;;;;30.42;15.82;;;;;;;;;;5107390;27;20035;-66
2023/05/02 14:09:59;;;;;;;29.00;15.57;;;;;;;;;;5135885;27;20057;-66
2023/05/02 14:12:26;;;;;;;22.48;13.88;;;;;;;;;;5137335;22;20058;-66
2023/05/02 14:14:52;;;;;;;20.23;12.95;;;;;;;;;;5115548;28;20460;-66
2023/05/02 14:17:20;;;;;;;24.00;13.00;;;;;;;;;;5115454;28;20035;-66
2023/05/02 14:19:47;;;;;;;25.95;14.55;;;;;;;;;;5115542;28;20016;-65
2023/05/02 14:22:13;;;;;;;42.63;29.90;;;;;;;;;;5108198;28;20027;-69
2023/05/02 14:24:40;;;;;;;34.60;23.08;;;;;;;;;;5109430;28;20366;-66